Time;durP1;ratioP1;P1;durP2;ratioP2;P2;SDS_P1;SDS_P2;PMS_P1;PMS_P2;Temp;Humidity;BMP_temperature;BMP_pressure;BME280_temperature;BME280_humidity;BME280_pressure;Samples;Min_cycle;Max_cycle;Signal;HPM_P1;HPM_P2
2023/10/17 00:02:11;;;;;;;2.90;2.10;;;10.60;60.20;;;;;;5034048;28;20037;-64
2023/10/17 00:04:40;;;;;;;2.78;1.75;;;10.60;60.10;;;;;;5034936;28;20032;-64
2023/10/17 00:07:08;;;;;;;3.17;1.88;;;10.60;60.10;;;;;;5033984;28;20029;-65
2023/10/17 00:09:39;;;;;;;3.33;2.28;;;10.70;60.00;;;;;;5033940;28;20025;-64
2023/10/17 00:12:33;;;;;;;5.05;2.15;;;10.70;60.00;;;;;;5034807;28;20029;-65
2023/10/17 00:17:17;;;;;;;3.45;2.22;;;10.70;59.80;;;;;;5034785;28;20033;-65
2023/10/17 00:19:45;;;;;;;4.13;2.03;;;10.60;59.90;;;;;;5034162;28;20362;-65
2023/10/17 00:22:17;;;;;;;3.38;2.05;;;10.70;59.90;;;;;;5035101;28;20028;-65
2023/10/17 00:24:46;;;;;;;3.63;2.13;;;10.70;59.90;;;;;;5035080;28;20021;-65
2023/10/17 00:27:13;;;;;;;2.85;1.92;;;10.70;60.00;;;;;;5034696;28;20025;-64
2023/10/17 00:29:39;;;;;;;3.40;1.92;;;10.70;60.00;;;;;;5033708;28;20388;-65
2023/10/17 00:32:09;;;;;;;2.45;1.80;;;10.70;60.10;;;;;;5035239;28;20026;-65
2023/10/17 00:34:36;;;;;;;3.42;2.00;;;10.60;60.30;;;;;;5033748;28;20096;-65
2023/10/17 00:37:11;;;;;;;2.08;1.67;;;10.60;60.30;;;;;;5036160;28;20079;-65
2023/10/17 00:39:38;;;;;;;3.67;2.20;;;10.60;60.30;;;;;;5037185;28;20336;-65
2023/10/17 00:44:41;;;;;;;2.92;2.00;;;10.50;60.20;;;;;;5037307;28;20105;-65
2023/10/17 00:47:09;;;;;;;3.75;2.17;;;10.50;60.30;;;;;;5036988;28;20054;-65
2023/10/17 00:49:44;;;;;;;3.17;2.13;;;10.50;60.60;;;;;;5038234;28;20040;-64
2023/10/17 00:52:23;;;;;;;3.88;1.92;;;10.40;60.70;;;;;;5037084;28;20048;-64
2023/10/17 00:54:51;;;;;;;5.72;2.42;;;10.40;60.80;;;;;;5037931;28;20456;-64
2023/10/17 00:57:18;;;;;;;6.97;2.78;;;10.40;60.90;;;;;;5037521;28;20080;-64
2023/10/17 00:59:52;;;;;;;6.20;3.13;;;10.30;61.00;;;;;;5038055;28;20021;-64
2023/10/17 01:02:23;;;;;;;11.52;4.38;;;10.30;61.20;;;;;;5036850;28;20053;-65
2023/10/17 01:04:56;;;;;;;12.57;4.07;;;10.20;61.40;;;;;;5036911;28;20021;-65
2023/10/17 01:07:29;;;;;;;6.90;3.15;;;10.20;61.60;;;;;;5038005;28;20091;-65
2023/10/17 01:10:00;;;;;;;7.63;3.45;;;10.10;61.80;;;;;;5036667;28;20504;-65
2023/10/17 01:12:28;;;;;;;5.90;3.40;;;10.00;61.90;;;;;;5037613;28;20057;-65
2023/10/17 01:14:55;;;;;;;4.93;2.65;;;10.00;61.90;;;;;;5037530;28;20033;-65
2023/10/17 01:17:25;;;;;;;5.88;3.10;;;10.00;61.90;;;;;;5037424;28;20458;-66
2023/10/17 01:19:57;;;;;;;4.90;2.92;;;10.00;62.10;;;;;;5020668;28;20151;-64
2023/10/17 01:22:23;;;;;;;7.65;3.47;;;10.00;62.30;;;;;;5036896;28;20029;-64
2023/10/17 01:24:53;;;;;;;5.72;2.80;;;9.90;62.50;;;;;;5037686;28;20018;-64
2023/10/17 01:27:21;;;;;;;5.63;3.38;;;9.90;62.60;;;;;;5037879;28;20120;-64
2023/10/17 01:29:48;;;;;;;5.57;3.30;;;9.90;62.60;;;;;;5037453;28;20040;-65
2023/10/17 01:32:18;;;;;;;5.40;3.17;;;9.90;62.80;;;;;;5037264;28;20029;-65
2023/10/17 01:34:47;;;;;;;6.68;2.90;;;9.90;62.90;;;;;;5037196;28;20026;-65
2023/10/17 01:37:15;;;;;;;6.70;3.20;;;9.80;63.30;;;;;;5037362;28;20457;-65
2023/10/17 01:39:43;;;;;;;5.68;2.90;;;9.80;63.50;;;;;;5037273;28;20068;-64
2023/10/17 01:42:12;;;;;;;4.10;2.60;;;9.70;63.50;;;;;;5036921;28;20030;-64
2023/10/17 01:44:40;;;;;;;4.05;2.53;;;9.60;63.70;;;;;;5037278;28;20100;-64
2023/10/17 01:47:08;;;;;;;4.20;2.55;;;9.60;63.80;;;;;;5046888;28;20518;-64
2023/10/17 01:49:36;;;;;;;5.28;2.50;;;9.50;64.10;;;;;;5056326;28;20484;-65
2023/10/17 01:52:03;;;;;;;3.45;2.25;;;9.50;64.00;;;;;;5056763;28;20040;-64
2023/10/17 01:54:29;;;;;;;5.25;2.85;;;9.50;64.40;;;;;;5057306;28;20025;-65
2023/10/17 01:57:05;;;;;;;6.35;2.72;;;9.40;64.50;;;;;;5056661;28;20082;-64
2023/10/17 01:59:34;;;;;;;5.45;2.88;;;9.40;64.60;;;;;;5056874;28;20037;-64
2023/10/17 02:02:03;;;;;;;8.65;3.08;;;9.40;64.60;;;;;;5056610;28;20032;-64
2023/10/17 02:04:30;;;;;;;6.80;2.95;;;9.40;64.90;;;;;;5022864;28;20060;-64
2023/10/17 02:06:57;;;;;;;4.60;2.50;;;9.30;65.10;;;;;;5039427;28;20458;-64
2023/10/17 02:11:55;;;;;;;5.40;2.97;;;9.30;65.20;;;;;;5056477;28;20040;-64
2023/10/17 02:14:22;;;;;;;6.40;3.10;;;9.20;65.00;;;;;;5038817;28;20025;-64
2023/10/17 02:16:49;;;;;;;5.95;2.75;;;9.20;64.80;;;;;;5056240;28;20443;-65
2023/10/17 02:19:16;;;;;;;4.63;2.83;;;9.10;64.70;;;;;;5056313;28;20104;-64
2023/10/17 02:21:49;;;;;;;7.43;3.15;;;9.00;64.60;;;;;;5056190;28;20045;-64
2023/10/17 02:24:19;;;;;;;5.38;2.92;;;8.90;65.20;;;;;;5038959;28;20346;-64
2023/10/17 02:27:08;;;;;;;4.45;2.63;;;8.90;65.30;;;;;;5038612;28;20029;-64
2023/10/17 02:29:39;;;;;;;4.75;2.40;;;8.90;65.10;;;;;;5056317;28;20032;-64
2023/10/17 02:32:21;;;;;;;4.25;2.85;;;8.80;64.90;;;;;;5055918;28;20037;-64
2023/10/17 02:34:48;;;;;;;4.55;2.78;;;8.80;65.10;;;;;;5055920;28;20029;-64
2023/10/17 02:37:18;;;;;;;5.45;2.80;;;8.70;65.40;;;;;;5056432;28;20494;-64
2023/10/17 02:39:44;;;;;;;4.60;2.45;;;8.70;65.60;;;;;;5055831;28;20049;-64
2023/10/17 02:42:11;;;;;;;4.20;2.83;;;8.60;65.10;;;;;;5055889;28;20045;-64
2023/10/17 02:44:43;;;;;;;6.72;2.75;;;8.60;65.60;;;;;;5056103;28;20087;-64
2023/10/17 02:47:13;;;;;;;4.65;2.83;;;8.60;65.70;;;;;;5034728;28;20525;-64
2023/10/17 02:49:42;;;;;;;4.53;2.88;;;8.60;65.90;;;;;;5036231;28;20036;-64
2023/10/17 02:52:08;;;;;;;5.45;2.60;;;8.60;65.80;;;;;;5034795;28;20025;-64
2023/10/17 02:57:34;;;;;;;6.32;3.10;;;8.50;66.10;;;;;;4994704;28;20129;-64
2023/10/17 03:00:19;;;;;;;8.23;3.25;;;8.40;66.60;;;;;;4994272;28;20048;-64
2023/10/17 03:02:48;;;;;;;7.15;3.00;;;8.40;66.50;;;;;;4994532;28;20476;-64
2023/10/17 03:05:14;;;;;;;7.00;3.25;;;8.40;66.80;;;;;;4994520;28;20037;-64
2023/10/17 03:07:42;;;;;;;7.40;3.60;;;8.40;67.00;;;;;;4978358;28;20041;-64
2023/10/17 03:10:09;;;;;;;7.07;3.55;;;8.40;67.10;;;;;;4994363;28;20065;-64
2023/10/17 03:12:50;;;;;;;7.38;3.50;;;8.40;67.20;;;;;;4978083;28;20391;-64
2023/10/17 03:15:19;;;;;;;7.47;3.53;;;8.40;67.40;;;;;;4994402;28;20042;-64
2023/10/17 03:17:47;;;;;;;5.30;2.97;;;8.40;67.40;;;;;;4994374;28;20373;-64
2023/10/17 03:20:18;;;;;;;6.57;3.55;;;8.50;67.60;;;;;;4994143;28;20035;-64
2023/10/17 03:22:44;;;;;;;6.43;3.03;;;8.40;67.60;;;;;;4994337;28;20023;-64
2023/10/17 03:25:20;;;;;;;4.22;2.72;;;8.40;67.40;;;;;;4994864;28;20038;-64
2023/10/17 03:27:48;;;;;;;4.55;2.83;;;8.40;67.70;;;;;;4994532;28;20452;-64
2023/10/17 03:30:19;;;;;;;4.78;2.92;;;8.40;67.60;;;;;;4994621;28;20034;-64
2023/10/17 03:35:24;;;;;;;5.03;3.08;;;8.40;67.80;;;;;;5035291;28;20033;-64
2023/10/17 03:37:51;;;;;;;4.60;2.80;;;8.40;67.80;;;;;;5035750;28;20021;-64
2023/10/17 03:40:29;;;;;;;4.82;2.40;;;8.40;67.80;;;;;;5035149;28;20033;-64
2023/10/17 03:42:55;;;;;;;5.30;2.78;;;8.50;67.80;;;;;;5034248;28;20025;-64
2023/10/17 03:47:53;;;;;;;5.70;3.17;;;8.40;67.90;;;;;;5050848;28;20134;-64
2023/10/17 03:53:15;;;;;;;10.88;3.33;;;8.50;67.90;;;;;;5041025;28;20044;-64
2023/10/17 03:55:51;;;;;;;5.18;2.80;;;8.40;67.80;;;;;;5022258;28;20090;-64
2023/10/17 04:01:12;;;;;;;5.38;2.85;;;8.40;68.10;;;;;;4994033;28;20054;-64
2023/10/17 04:03:42;;;;;;;6.43;2.85;;;8.40;68.10;;;;;;4994062;28;20034;-64
2023/10/17 04:08:49;;;;;;;5.10;2.63;;;8.30;68.20;;;;;;4993937;28;20448;-64
2023/10/17 04:13:52;;;;;;;7.22;3.05;;;8.20;68.00;;;;;;4997700;28;20118;-64
2023/10/17 04:16:27;;;;;;;5.07;2.90;;;8.20;68.40;;;;;;4981581;28;20033;-64
2023/10/17 04:19:00;;;;;;;7.53;3.15;;;8.10;68.80;;;;;;4981924;28;20150;-64
2023/10/17 04:21:36;;;;;;;6.20;3.10;;;8.10;68.70;;;;;;4997416;28;20170;-64
2023/10/17 04:24:09;;;;;;;4.22;2.80;;;8.00;68.30;;;;;;4982062;28;20029;-64
2023/10/17 04:26:47;;;;;;;5.38;2.50;;;8.00;68.90;;;;;;4998212;28;20345;-64
2023/10/17 04:29:22;;;;;;;5.68;2.88;;;7.90;69.00;;;;;;4997969;28;20069;-64
2023/10/17 04:31:55;;;;;;;7.88;3.08;;;7.90;68.80;;;;;;4997340;28;20417;-64
2023/10/17 04:34:21;;;;;;;5.55;3.00;;;7.90;68.80;;;;;;4997384;28;20042;-64
2023/10/17 04:36:52;;;;;;;7.15;3.30;;;7.80;69.20;;;;;;4997144;28;20033;-64
2023/10/17 04:39:19;;;;;;;5.60;3.05;;;7.80;69.30;;;;;;5057729;28;20455;-64
2023/10/17 04:44:25;;;;;;;4.18;2.95;;;7.70;69.10;;;;;;5058119;28;20358;-64
2023/10/17 04:49:32;;;;;;;3.90;2.42;;;7.70;69.50;;;;;;5057980;28;20067;-64
2023/10/17 04:52:50;;;;;;;4.38;2.60;;;7.80;69.50;;;;;;5057956;28;20032;-64
2023/10/17 04:54:53;;;;;;;4.45;2.75;;;7.80;69.50;;;;;;5050377;28;20033;-64
2023/10/17 04:57:21;;;;;;;4.15;2.67;;;7.80;69.80;;;;;;5057659;28;20025;-64
2023/10/17 06:19:16;;;;;;;11.88;4.72;;;8.10;70.70;;;;;;5056349;28;20064;-64
2023/10/17 06:33:26;;;;;;;9.80;5.03;;;9.20;69.10;;;;;;4956453;29;20174;-63
2023/10/17 06:35:54;;;;;;;;;;;9.50;68.50;;;;;;4956329;28;20130;-64
2023/10/17 06:38:45;;;;;;;10.40;4.43;;;9.90;68.90;;;;;;4992203;28;19913;-64
2023/10/17 06:44:08;;;;;;;12.00;5.28;;;10.30;67.20;;;;;;4994933;28;20061;-64
2023/10/17 06:46:40;;;;;;;11.35;5.57;;;10.40;66.30;;;;;;4994811;28;20050;-64
2023/10/17 06:49:08;;;;;;;8.45;4.47;;;10.50;66.60;;;;;;4994743;28;20137;-64
2023/10/17 06:51:39;;;;;;;12.40;5.68;;;10.70;66.10;;;;;;4994647;28;20030;-64
2023/10/17 06:54:13;;;;;;;17.95;5.20;;;10.80;66.00;;;;;;4994690;28;20034;-64
2023/10/17 06:56:39;;;;;;;12.65;5.20;;;10.90;65.60;;;;;;4994527;28;20438;-64
2023/10/17 06:59:14;;;;;;;14.80;4.90;;;11.10;65.60;;;;;;4994668;28;20118;-64
2023/10/17 07:01:42;;;;;;;14.70;5.68;;;11.30;65.50;;;;;;5018954;28;20410;-65
2023/10/17 07:04:12;;;;;;;12.27;5.05;;;11.60;65.80;;;;;;5035570;28;20029;-64
2023/10/17 07:06:40;;;;;;;10.00;4.60;;;11.80;65.30;;;;;;5035759;28;20041;-64
2023/10/17 07:09:16;;;;;;;11.63;4.57;;;12.10;64.70;;;;;;5035486;28;20025;-64
2023/10/17 07:11:47;;;;;;;11.60;4.45;;;12.30;64.30;;;;;;5035744;28;20030;-64
2023/10/17 07:14:22;;;;;;;8.75;4.40;;;12.60;63.90;;;;;;5036035;28;20051;-65
2023/10/17 07:16:48;;;;;;;9.27;3.95;;;12.80;63.40;;;;;;5035691;28;20018;-65
2023/10/17 07:24:29;;;;;;;7.90;3.83;;;13.50;62.00;;;;;;5035248;28;20125;-65
2023/10/17 07:26:56;;;;;;;6.68;3.40;;;13.70;60.90;;;;;;5035601;28;20498;-65
2023/10/17 07:29:22;;;;;;;5.82;3.00;;;13.90;60.60;;;;;;5034985;28;20120;-65
2023/10/17 07:32:00;;;;;;;6.90;3.10;;;14.10;59.60;;;;;;5034262;28;20021;-65
2023/10/17 07:34:36;;;;;;;7.15;2.80;;;14.40;58.80;;;;;;5036088;28;20084;-65
2023/10/17 07:37:22;;;;;;;5.70;3.25;;;14.50;58.60;;;;;;5035502;28;20040;-65
2023/10/17 07:42:40;;;;;;;5.43;3.17;;;14.80;57.60;;;;;;5035283;28;20091;-65
2023/10/17 07:45:14;;;;;;;7.10;3.20;;;14.90;57.30;;;;;;5035182;28;20030;-65
2023/10/17 07:47:51;;;;;;;4.45;2.80;;;15.00;57.30;;;;;;5052249;28;20135;-65
2023/10/17 07:50:17;;;;;;;4.47;2.47;;;15.20;56.70;;;;;;5059369;28;20036;-65
2023/10/17 07:52:44;;;;;;;5.03;2.88;;;15.20;56.00;;;;;;5059358;28;20033;-65
2023/10/17 07:55:46;;;;;;;4.35;2.40;;;15.30;55.80;;;;;;5059309;28;20358;-64
2023/10/17 07:58:09;;;;;;;5.00;2.83;;;15.30;55.40;;;;;;5055858;28;20067;-65
2023/10/17 08:00:36;;;;;;;4.28;2.60;;;15.40;54.60;;;;;;5042123;28;20029;-65
2023/10/17 08:03:15;;;;;;;3.88;2.55;;;15.40;54.20;;;;;;5058854;28;20043;-65
2023/10/17 08:06:05;;;;;;;4.20;2.38;;;15.40;54.20;;;;;;5059459;28;20067;-65
2023/10/17 08:08:42;;;;;;;5.05;2.55;;;15.40;54.30;;;;;;5058803;28;20047;-65
2023/10/17 08:11:26;;;;;;;4.63;2.95;;;15.40;53.80;;;;;;5058659;28;20339;-65
2023/10/17 08:13:56;;;;;;;6.03;2.80;;;15.50;53.10;;;;;;5059020;28;20028;-65
2023/10/17 08:16:28;;;;;;;6.40;3.00;;;15.50;53.50;;;;;;5024765;28;20449;-65
2023/10/17 08:22:27;;;;;;;4.18;2.60;;;15.50;52.80;;;;;;5058578;28;20040;-65
2023/10/17 08:24:33;;;;;;;4.18;2.50;;;15.60;53.40;;;;;;5047637;28;20048;-65
2023/10/17 08:32:38;;;;;;;4.05;2.08;;;15.60;51.30;;;;;;5058432;28;20036;-65
2023/10/17 08:35:17;;;;;;;3.17;2.22;;;15.60;51.50;;;;;;5058620;28;20405;-65
2023/10/17 08:37:43;;;;;;;4.20;2.47;;;15.60;51.50;;;;;;5058520;28;20025;-65
2023/10/17 08:40:54;;;;;;;2.78;2.33;;;15.70;51.50;;;;;;5058432;28;20029;-65
2023/10/17 08:43:03;;;;;;;7.18;2.53;;;15.70;50.90;;;;;;5033628;28;20075;-65
2023/10/17 08:45:37;;;;;;;4.63;2.80;;;15.70;50.40;;;;;;5041345;28;20033;-65
2023/10/17 08:48:05;;;;;;;4.30;2.67;;;15.80;50.50;;;;;;5041918;28;20053;-65
2023/10/17 08:50:38;;;;;;;4.30;2.42;;;15.80;50.10;;;;;;5040906;28;20036;-65
2023/10/17 08:55:43;;;;;;;6.15;2.40;;;15.70;50.80;;;;;;5057943;28;20083;-65
2023/10/17 08:58:09;;;;;;;4.22;2.35;;;15.70;50.30;;;;;;5057450;28;20383;-65
2023/10/17 09:00:49;;;;;;;3.92;2.53;;;15.80;48.50;;;;;;5057956;28;20055;-65
2023/10/17 09:03:37;;;;;;;3.33;2.38;;;15.80;49.50;;;;;;5042260;28;20049;-65
2023/10/17 09:06:10;;;;;;;3.40;2.38;;;15.90;50.00;;;;;;5042006;28;20431;-65
2023/10/17 09:11:14;;;;;;;2.65;1.90;;;16.00;50.00;;;;;;5057626;28;20032;-65
2023/10/17 09:16:16;;;;;;;3.97;1.98;;;16.20;50.00;;;;;;5057521;28;20029;-65
2023/10/17 09:18:54;;;;;;;6.03;2.40;;;16.20;50.10;;;;;;5057532;28;20041;-65
2023/10/17 09:21:23;;;;;;;4.25;2.40;;;16.30;48.60;;;;;;5057350;28;20032;-65
2023/10/17 09:23:50;;;;;;;2.58;2.33;;;16.20;49.10;;;;;;5057967;28;20434;-65
2023/10/17 09:26:23;;;;;;;3.15;2.20;;;16.20;48.00;;;;;;5057368;28;20029;-65
2023/10/17 09:28:59;;;;;;;3.80;2.42;;;16.30;49.00;;;;;;5057328;28;20375;-65
2023/10/17 09:31:26;;;;;;;2.95;2.35;;;16.30;48.90;;;;;;5057700;28;20112;-65
2023/10/17 09:33:53;;;;;;;4.35;2.67;;;16.30;49.30;;;;;;5057182;28;20040;-65
2023/10/17 09:36:19;;;;;;;7.13;2.63;;;16.40;49.10;;;;;;5057357;28;20043;-65
2023/10/17 09:38:47;;;;;;;5.10;3.00;;;16.40;48.60;;;;;;5057413;28;20098;-65
2023/10/17 09:41:18;;;;;;;3.15;2.30;;;16.40;48.30;;;;;;5057033;28;20118;-65
2023/10/17 09:43:49;;;;;;;2.15;1.92;;;16.50;48.70;;;;;;5057335;28;20064;-65
2023/10/17 09:46:17;;;;;;;4.35;2.50;;;16.50;48.90;;;;;;5039871;28;20636;-65
2023/10/17 09:48:46;;;;;;;6.03;2.60;;;16.50;48.40;;;;;;5057544;28;20041;-65
2023/10/17 09:51:25;;;;;;;3.00;2.20;;;16.50;48.00;;;;;;5056810;28;20035;-65
2023/10/17 09:53:53;;;;;;;5.07;3.00;;;16.50;48.10;;;;;;5040739;28;20032;-65
2023/10/17 09:56:34;;;;;;;2.95;2.40;;;16.50;48.80;;;;;;5056720;28;20029;-65
2023/10/17 09:59:05;;;;;;;4.70;3.00;;;16.60;48.80;;;;;;5057299;28;20029;-65
2023/10/17 10:01:37;;;;;;;5.13;2.90;;;16.50;47.00;;;;;;5056621;28;20017;-65
2023/10/17 10:04:03;;;;;;;4.78;2.88;;;16.50;48.30;;;;;;5057170;28;20021;-65
2023/10/17 10:06:34;;;;;;;4.60;2.83;;;16.50;48.50;;;;;;5056884;28;20096;-65
2023/10/17 10:09:14;;;;;;;5.22;2.90;;;16.50;48.50;;;;;;5055671;28;20083;-65
2023/10/17 10:11:49;;;;;;;5.50;3.10;;;16.60;48.10;;;;;;5056745;28;20040;-65
2023/10/17 10:14:37;;;;;;;4.22;2.80;;;16.70;48.40;;;;;;5056991;28;20067;-65
2023/10/17 10:17:04;;;;;;;8.35;3.50;;;16.80;48.50;;;;;;5056911;28;20079;-65
2023/10/17 10:19:42;;;;;;;5.32;3.05;;;16.80;47.80;;;;;;5056543;28;20025;-65
2023/10/17 10:22:10;;;;;;;4.85;2.67;;;16.90;48.20;;;;;;5056545;28;20021;-65
2023/10/17 10:24:37;;;;;;;4.30;2.50;;;17.00;48.80;;;;;;5056471;28;20112;-65
2023/10/17 10:29:42;;;;;;;7.32;3.08;;;17.10;48.30;;;;;;5056167;28;20366;-65
2023/10/17 10:32:28;;;;;;;4.82;3.10;;;17.10;47.70;;;;;;5038937;28;20353;-65
2023/10/17 10:34:54;;;;;;;6.63;3.30;;;17.10;46.80;;;;;;5056393;28;20094;-65
2023/10/17 10:37:21;;;;;;;8.52;3.03;;;16.90;46.30;;;;;;5056236;28;20029;-65
2023/10/17 10:40:08;;;;;;;4.28;2.80;;;16.90;47.20;;;;;;5039127;28;20029;-65
2023/10/17 10:42:45;;;;;;;5.75;3.45;;;16.90;46.50;;;;;;5056184;28;20020;-65
2023/10/17 10:45:50;;;;;;;5.18;3.10;;;16.90;47.30;;;;;;5039044;28;20083;-65
2023/10/17 10:48:18;;;;;;;4.63;2.80;;;16.90;45.70;;;;;;5055695;28;20041;-65
2023/10/17 10:50:49;;;;;;;3.58;2.30;;;16.90;47.40;;;;;;5038416;28;20039;-65
2023/10/17 10:53:21;;;;;;;6.00;3.55;;;17.00;47.80;;;;;;5056037;28;20073;-65
2023/10/17 10:56:03;;;;;;;5.10;2.55;;;17.00;45.70;;;;;;5055571;28;20025;-65
2023/10/17 10:58:34;;;;;;;3.83;2.60;;;17.00;47.40;;;;;;5056254;28;20029;-65
2023/10/17 11:01:02;;;;;;;4.88;2.90;;;17.10;47.90;;;;;;5055799;28;20025;-65
2023/10/17 11:03:32;;;;;;;4.22;2.58;;;17.20;47.60;;;;;;5038230;28;20028;-65
2023/10/17 11:06:04;;;;;;;5.35;3.30;;;17.40;48.10;;;;;;5038666;28;20406;-65
2023/10/17 11:08:37;;;;;;;6.63;3.33;;;17.40;46.80;;;;;;5056100;28;20377;-65
2023/10/17 11:11:04;;;;;;;9.18;3.20;;;17.50;46.20;;;;;;5055712;28;20039;-65
2023/10/17 11:13:40;;;;;;;3.47;2.78;;;17.50;46.20;;;;;;5055732;28;20040;-65
2023/10/17 11:16:07;;;;;;;6.90;3.00;;;17.50;46.70;;;;;;5055627;28;20112;-65
2023/10/17 11:18:43;;;;;;;4.28;2.92;;;17.60;47.20;;;;;;5055410;28;20040;-65
2023/10/17 11:21:10;;;;;;;4.55;3.00;;;17.60;46.90;;;;;;5055316;28;20477;-65
2023/10/17 11:23:46;;;;;;;3.20;2.78;;;17.70;45.30;;;;;;5037848;28;20025;-65
2023/10/17 11:26:13;;;;;;;4.43;2.72;;;17.60;44.40;;;;;;5037741;28;20358;-65
2023/10/17 11:28:47;;;;;;;3.58;2.50;;;17.60;45.90;;;;;;5055165;28;20021;-65
2023/10/17 11:31:21;;;;;;;3.83;2.33;;;17.60;46.20;;;;;;5055175;28;20040;-65
2023/10/17 11:34:07;;;;;;;4.50;2.70;;;17.70;46.70;;;;;;5055151;28;20116;-65
2023/10/17 11:36:47;;;;;;;4.60;2.45;;;17.80;46.20;;;;;;5055440;28;20082;-65
2023/10/17 11:39:18;;;;;;;4.25;2.78;;;17.90;44.40;;;;;;5038202;28;20025;-65
2023/10/17 11:41:59;;;;;;;5.88;3.38;;;17.90;45.50;;;;;;5055341;28;20029;-65
2023/10/17 11:44:31;;;;;;;5.30;3.15;;;17.90;43.40;;;;;;5055073;28;20443;-65
2023/10/17 11:47:03;;;;;;;5.07;2.80;;;17.90;43.90;;;;;;5054830;28;20106;-65
2023/10/17 11:49:41;;;;;;;5.88;2.90;;;17.80;44.70;;;;;;5038314;28;20025;-65
2023/10/17 11:52:15;;;;;;;4.72;2.85;;;17.80;45.10;;;;;;5038376;28;20054;-65
2023/10/17 11:55:11;;;;;;;5.93;2.80;;;17.80;45.30;;;;;;5038464;28;20021;-65
2023/10/17 11:57:37;;;;;;;2.97;2.25;;;17.90;44.60;;;;;;5054927;28;20044;-65
2023/10/17 12:02:42;;;;;;;4.80;2.50;;;17.90;45.40;;;;;;5055555;28;20124;-65
2023/10/17 12:05:17;;;;;;;3.35;2.17;;;18.00;45.40;;;;;;5054946;28;20109;-65
2023/10/17 12:07:53;;;;;;;6.00;3.30;;;18.00;45.40;;;;;;5037378;28;20450;-65
2023/10/17 12:10:20;;;;;;;5.20;2.90;;;18.10;44.80;;;;;;5037294;28;20053;-65
2023/10/17 12:12:47;;;;;;;10.63;3.50;;;18.20;45.10;;;;;;5055151;28;20032;-65
2023/10/17 12:15:20;;;;;;;4.72;2.65;;;18.20;43.20;;;;;;5055078;28;20025;-65
2023/10/17 12:17:49;;;;;;;5.40;2.95;;;18.30;44.50;;;;;;5054737;28;20043;-65
2023/10/17 12:20:40;;;;;;;6.00;3.00;;;18.20;44.80;;;;;;5055001;28;20401;-65
2023/10/17 12:23:01;;;;;;;3.80;3.00;;;18.30;43.50;;;;;;5054211;28;20379;-65
2023/10/17 12:25:29;;;;;;;4.82;3.05;;;18.30;43.60;;;;;;5054731;28;20055;-65
2023/10/17 12:27:56;;;;;;;4.43;3.03;;;18.20;43.80;;;;;;5054731;28;20037;-65
2023/10/17 12:30:24;;;;;;;6.05;3.20;;;18.20;43.80;;;;;;5054589;28;20064;-65
2023/10/17 12:32:50;;;;;;;4.13;3.10;;;18.20;44.10;;;;;;5055832;28;20055;-65
2023/10/17 12:35:16;;;;;;;4.88;2.90;;;18.20;44.10;;;;;;5058333;28;20028;-65
2023/10/17 12:37:46;;;;;;;5.38;3.20;;;18.20;44.40;;;;;;5058170;28;20025;-65
2023/10/17 12:40:18;;;;;;;3.63;2.70;;;18.20;43.40;;;;;;5058427;28;20029;-65
2023/10/17 12:42:46;;;;;;;5.27;3.23;;;18.10;43.70;;;;;;5058198;28;20453;-65
2023/10/17 12:45:14;;;;;;;6.45;4.07;;;18.10;43.70;;;;;;5058066;28;20074;-65
2023/10/17 12:47:43;;;;;;;6.25;3.22;;;18.00;43.10;;;;;;5040819;28;20489;-65
2023/10/17 12:50:14;;;;;;;6.32;3.13;;;17.90;43.60;;;;;;5040402;28;20040;-65
2023/10/17 12:52:40;;;;;;;4.47;2.95;;;17.90;44.20;;;;;;5057991;28;20378;-65
2023/10/17 12:55:08;;;;;;;6.70;3.40;;;17.90;44.40;;;;;;5057993;28;20025;-65
2023/10/17 12:57:36;;;;;;;6.70;3.35;;;18.00;43.90;;;;;;5058117;28;20021;-65
2023/10/17 13:00:02;;;;;;;6.55;3.10;;;18.00;43.80;;;;;;5040924;28;20027;-65
2023/10/17 13:02:29;;;;;;;4.88;3.10;;;18.00;44.40;;;;;;5057855;28;20037;-65
2023/10/17 13:04:55;;;;;;;5.95;3.03;;;18.00;44.50;;;;;;5057747;28;20053;-65
2023/10/17 13:07:25;;;;;;;5.55;2.92;;;18.10;44.80;;;;;;5057599;28;20029;-65
2023/10/17 13:09:51;;;;;;;6.63;3.20;;;18.10;45.00;;;;;;5057522;28;20083;-65
2023/10/17 13:12:19;;;;;;;3.60;2.50;;;18.20;44.90;;;;;;5057918;28;20029;-65
2023/10/17 13:14:45;;;;;;;3.95;2.90;;;18.20;45.00;;;;;;5057406;28;20466;-65
2023/10/17 13:17:12;;;;;;;5.72;2.80;;;18.30;44.60;;;;;;5039873;28;20024;-65
2023/10/17 13:19:48;;;;;;;5.18;3.22;;;18.30;44.30;;;;;;5057368;28;20036;-65
2023/10/17 13:22:17;;;;;;;5.43;3.42;;;18.30;43.90;;;;;;5057376;28;20025;-65
2023/10/17 13:24:45;;;;;;;7.00;3.10;;;18.30;44.20;;;;;;5062172;28;20021;-65
2023/10/17 13:27:43;;;;;;;5.30;3.45;;;18.40;44.30;;;;;;5046847;28;20051;-65
2023/10/17 13:30:14;;;;;;;5.72;3.20;;;18.40;44.30;;;;;;5064619;28;20024;-65
2023/10/17 13:32:44;;;;;;;4.50;2.72;;;18.40;44.40;;;;;;5046033;28;20358;-64
2023/10/17 13:35:12;;;;;;;4.78;2.80;;;18.40;44.40;;;;;;5042991;28;20059;-64
2023/10/17 13:37:51;;;;;;;6.03;3.40;;;18.40;44.50;;;;;;5063925;28;20029;-64
2023/10/17 13:40:22;;;;;;;5.88;3.17;;;18.40;44.40;;;;;;5065340;28;20048;-64
2023/10/17 13:42:55;;;;;;;5.47;3.50;;;18.40;44.20;;;;;;5056858;28;20750;-64
2023/10/17 13:45:22;;;;;;;7.20;3.30;;;18.40;44.30;;;;;;5054180;28;20442;-64
2023/10/17 13:47:52;;;;;;;5.95;3.40;;;18.40;44.40;;;;;;5055686;28;20056;-64
2023/10/17 13:50:19;;;;;;;6.55;3.38;;;18.30;44.70;;;;;;5021824;28;20082;-64
2023/10/17 13:52:49;;;;;;;4.72;3.15;;;18.40;44.40;;;;;;5039253;28;20029;-64
2023/10/17 13:55:25;;;;;;;6.72;3.25;;;18.30;44.50;;;;;;5039204;28;20461;-64
2023/10/17 13:58:04;;;;;;;5.35;3.50;;;18.30;44.30;;;;;;5057453;28;20047;-64
2023/10/17 14:00:44;;;;;;;5.47;3.38;;;18.20;44.20;;;;;;5056591;28;20021;-64
2023/10/17 14:03:13;;;;;;;10.15;3.95;;;18.20;44.00;;;;;;5057223;28;20029;-64
2023/10/17 14:05:47;;;;;;;9.68;4.18;;;18.10;44.10;;;;;;5056500;28;20347;-65
2023/10/17 14:08:18;;;;;;;5.63;3.40;;;18.00;43.70;;;;;;5056796;28;20047;-65
2023/10/17 14:10:46;;;;;;;7.53;3.50;;;18.00;43.70;;;;;;5039087;28;20115;-65
2023/10/17 14:13:15;;;;;;;5.07;3.08;;;17.90;43.80;;;;;;5056684;28;20021;-65
2023/10/17 14:15:41;;;;;;;5.78;3.60;;;17.90;44.20;;;;;;5034545;28;20079;-65
2023/10/17 14:18:13;;;;;;;6.75;3.30;;;17.90;44.10;;;;;;5056331;28;20025;-65
2023/10/17 14:26:29;;;;;;;9.93;3.90;;;17.90;44.70;;;;;;5056202;28;20075;-66
2023/10/17 14:29:02;;;;;;;18.33;6.45;;;17.90;44.80;;;;;;5056371;28;20032;-66
2023/10/17 14:31:29;;;;;;;9.25;4.25;;;17.90;45.00;;;;;;5039531;28;20107;-63
2023/10/17 14:33:57;;;;;;;6.15;3.08;;;17.90;45.00;;;;;;5056542;28;20029;-65
2023/10/17 14:36:23;;;;;;;5.10;3.15;;;17.90;45.10;;;;;;5038259;28;20025;-64
2023/10/17 14:38:49;;;;;;;7.32;3.45;;;17.90;45.10;;;;;;5055877;28;20032;-65
2023/10/17 14:41:18;;;;;;;7.18;3.30;;;17.90;45.20;;;;;;5055798;28;20070;-65
2023/10/17 14:43:49;;;;;;;9.55;3.90;;;17.90;45.10;;;;;;5056390;28;20036;-65
2023/10/17 14:46:22;;;;;;;7.47;3.60;;;17.90;45.30;;;;;;5055475;28;20033;-65
2023/10/17 14:48:48;;;;;;;5.68;3.33;;;17.90;45.30;;;;;;5056400;28;20044;-65
2023/10/17 14:51:15;;;;;;;6.35;3.72;;;17.90;45.20;;;;;;5055951;28;20025;-65
2023/10/17 14:53:42;;;;;;;5.45;3.78;;;17.90;45.20;;;;;;5055185;28;20032;-65
2023/10/17 14:56:12;;;;;;;6.15;3.63;;;17.90;45.40;;;;;;5055187;28;20477;-65
2023/10/17 14:58:49;;;;;;;8.45;4.22;;;17.80;45.40;;;;;;5055669;28;20082;-65
2023/10/17 15:01:16;;;;;;;6.55;3.10;;;17.80;45.30;;;;;;5055717;28;20044;-65
2023/10/17 15:03:50;;;;;;;8.02;3.85;;;17.80;45.30;;;;;;5055448;28;20033;-65
2023/10/17 15:06:20;;;;;;;6.20;4.03;;;17.70;45.30;;;;;;5055424;28;20405;-65
2023/10/17 15:08:47;;;;;;;7.07;3.60;;;17.70;45.30;;;;;;5055289;28;20408;-65
2023/10/17 15:11:12;;;;;;;6.90;3.65;;;17.70;45.20;;;;;;5055417;28;20028;-65
2023/10/17 15:13:38;;;;;;;6.68;3.88;;;17.60;45.10;;;;;;5055635;28;20025;-65
2023/10/17 15:16:20;;;;;;;5.88;3.65;;;17.60;45.10;;;;;;5055288;28;20052;-65
2023/10/17 15:18:51;;;;;;;7.72;4.03;;;17.50;45.00;;;;;;5055592;28;20056;-65
2023/10/17 15:21:21;;;;;;;6.47;3.53;;;17.50;45.50;;;;;;5055210;28;20430;-65
2023/10/17 15:23:53;;;;;;;7.53;3.70;;;17.50;45.70;;;;;;5055440;28;20033;-65
2023/10/17 15:26:21;;;;;;;4.85;3.03;;;17.40;46.00;;;;;;5055543;28;20025;-65
2023/10/17 15:28:48;;;;;;;7.13;3.88;;;17.40;45.90;;;;;;5055447;28;20036;-65
2023/10/17 15:31:14;;;;;;;7.18;3.17;;;17.40;46.20;;;;;;5055387;28;20040;-65
2023/10/17 15:33:40;;;;;;;5.95;3.03;;;17.40;46.70;;;;;;5055180;28;20041;-65
2023/10/17 15:36:11;;;;;;;7.25;3.53;;;17.40;46.90;;;;;;5055553;28;20096;-65
2023/10/17 15:38:41;;;;;;;7.97;3.17;;;17.40;47.10;;;;;;5055107;28;20346;-65
2023/10/17 15:41:11;;;;;;;5.93;2.95;;;17.30;47.30;;;;;;5055249;28;20032;-65
2023/10/17 15:43:38;;;;;;;7.00;3.30;;;17.30;47.50;;;;;;5055113;28;20079;-65
2023/10/17 15:46:04;;;;;;;5.95;3.08;;;17.20;47.70;;;;;;5055097;28;20035;-65
2023/10/17 15:48:31;;;;;;;5.28;2.92;;;17.20;48.20;;;;;;5054999;28;20025;-65
2023/10/17 15:50:57;;;;;;;8.32;2.90;;;17.10;48.30;;;;;;5055518;28;20025;-65